createdAt,value
2022-12-27T00:00:19.297Z,8.91
2022-12-27T00:01:19.462Z,8.87
2022-12-27T00:02:19.753Z,8.84
2022-12-27T00:03:19.878Z,8.78
2022-12-27T00:04:20.012Z,8.76
2022-12-27T00:05:20.173Z,8.73
2022-12-27T00:06:20.351Z,8.70
2022-12-27T00:07:20.506Z,8.67
2022-12-27T00:08:20.664Z,8.63
2022-12-27T00:09:20.873Z,8.60
2022-12-27T00:10:21.027Z,8.58
2022-12-27T00:11:21.214Z,8.56
2022-12-27T00:12:21.376Z,8.53
2022-12-27T00:13:21.576Z,8.49
2022-12-27T00:14:21.729Z,8.48
2022-12-27T00:15:21.926Z,8.45
2022-12-27T00:16:22.119Z,8.44
2022-12-27T00:17:22.253Z,8.38
2022-12-27T00:18:22.404Z,8.38
2022-12-27T00:19:22.592Z,8.36
2022-12-27T00:20:22.786Z,8.31
2022-12-27T00:21:22.958Z,8.31
2022-12-27T00:22:23.106Z,8.28
2022-12-27T00:23:23.303Z,8.28
2022-12-27T00:24:23.454Z,8.28
2022-12-27T00:25:23.647Z,8.28
2022-12-27T00:26:23.827Z,8.28
2022-12-27T00:27:23.982Z,8.30
2022-12-27T00:28:24.137Z,8.27
2022-12-27T00:29:24.332Z,8.23
2022-12-27T00:30:24.478Z,8.23
2022-12-27T00:31:24.789Z,8.23
2022-12-27T00:32:24.831Z,8.20
2022-12-27T00:33:25.021Z,8.20
2022-12-27T00:34:25.194Z,8.19
2022-12-27T00:35:25.393Z,8.13
2022-12-27T00:36:25.580Z,8.09
2022-12-27T00:37:25.721Z,8.08
2022-12-27T00:38:25.873Z,8.06
2022-12-27T00:39:26.064Z,8.01
2022-12-27T00:40:26.214Z,8.00
2022-12-27T00:41:26.431Z,7.98
2022-12-27T00:42:26.591Z,7.95
2022-12-27T00:43:26.794Z,7.93
2022-12-27T00:44:26.982Z,7.91
2022-12-27T00:45:27.186Z,7.90
2022-12-27T00:46:27.335Z,7.85
2022-12-27T00:47:27.496Z,7.83
2022-12-27T00:48:27.644Z,7.82
2022-12-27T00:49:27.842Z,7.79
2022-12-27T00:50:27.999Z,7.77
2022-12-27T00:51:28.204Z,7.79
2022-12-27T00:52:28.366Z,7.75
2022-12-27T00:53:28.564Z,7.75
2022-12-27T00:54:28.717Z,7.70
2022-12-27T00:55:28.910Z,7.69
2022-12-27T00:56:29.089Z,7.70
2022-12-27T00:57:29.244Z,7.66
2022-12-27T00:58:29.393Z,7.66
2022-12-27T00:59:29.582Z,7.61
2022-12-27T01:00:29.754Z,7.57
2022-12-27T01:01:30.157Z,7.57
2022-12-27T01:02:30.133Z,7.58
2022-12-27T01:03:30.337Z,7.54
2022-12-27T01:04:30.452Z,7.53
2022-12-27T01:05:30.642Z,7.54
2022-12-27T01:06:30.812Z,7.51
2022-12-27T01:07:30.973Z,7.47
2022-12-27T01:08:31.151Z,7.45
2022-12-27T01:09:31.350Z,7.45
2022-12-27T01:10:31.524Z,7.45
2022-12-27T01:11:31.698Z,7.42
2022-12-27T01:12:31.853Z,7.38
2022-12-27T01:13:32.020Z,7.39
2022-12-27T01:14:32.189Z,7.38
2022-12-27T01:15:32.377Z,7.40
2022-12-27T01:16:32.572Z,7.39
2022-12-27T01:17:32.692Z,7.39
2022-12-27T01:18:32.847Z,7.36
2022-12-27T01:19:33.011Z,7.38
2022-12-27T01:20:33.171Z,7.36
2022-12-27T01:21:33.399Z,7.36
2022-12-27T01:22:33.565Z,7.32
2022-12-27T01:23:33.732Z,7.32
2022-12-27T01:24:33.897Z,7.31
2022-12-27T01:25:34.061Z,7.31
2022-12-27T01:26:34.242Z,7.31
2022-12-27T01:27:34.399Z,7.25
2022-12-27T01:28:34.574Z,7.25
2022-12-27T01:29:34.735Z,7.24
2022-12-27T01:30:34.904Z,7.24
2022-12-27T01:31:35.145Z,7.24
2022-12-27T01:32:35.265Z,7.23
2022-12-27T01:33:35.428Z,7.25
2022-12-27T01:34:35.581Z,7.23
2022-12-27T01:35:35.778Z,7.23
2022-12-27T01:36:35.954Z,7.23
2022-12-27T01:37:36.116Z,7.20
2022-12-27T01:38:36.300Z,7.20
2022-12-27T01:39:36.439Z,7.20
2022-12-27T01:40:36.599Z,7.17
2022-12-27T01:41:36.817Z,7.18
2022-12-27T01:42:36.959Z,7.20
2022-12-27T01:43:37.151Z,7.21
2022-12-27T01:44:37.313Z,7.17
2022-12-27T01:45:37.491Z,7.17
2022-12-27T01:46:37.656Z,7.17
2022-12-27T01:47:37.817Z,7.15
2022-12-27T01:48:37.968Z,7.14
2022-12-27T01:49:38.138Z,7.13
2022-12-27T01:50:38.325Z,7.13
2022-12-27T01:51:38.528Z,7.14
2022-12-27T01:52:38.683Z,7.11
2022-12-27T01:53:38.848Z,7.07
2022-12-27T01:54:39.050Z,7.06
2022-12-27T01:55:39.197Z,7.06
2022-12-27T01:56:39.367Z,7.07
2022-12-27T01:57:39.537Z,7.05
2022-12-27T01:58:39.739Z,7.05
2022-12-27T01:59:39.918Z,7.05
2022-12-27T02:00:40.068Z,7.06
2022-12-27T02:01:40.416Z,7.05
2022-12-27T02:02:40.505Z,7.02
2022-12-27T02:03:40.567Z,7.02
2022-12-27T02:04:40.765Z,7.02
2022-12-27T02:05:40.919Z,6.99
2022-12-27T02:06:41.126Z,7.02
2022-12-27T02:07:41.299Z,6.97
2022-12-27T02:08:41.484Z,6.95
2022-12-27T02:09:41.655Z,6.95
2022-12-27T02:10:41.845Z,6.95
2022-12-27T02:11:42.019Z,6.92
2022-12-27T02:12:42.183Z,6.93
2022-12-27T02:13:42.335Z,6.93
2022-12-27T02:14:42.514Z,6.93
2022-12-27T02:15:42.673Z,6.92
2022-12-27T02:16:42.869Z,6.92
2022-12-27T02:17:43.011Z,6.93
2022-12-27T02:18:43.212Z,6.93
2022-12-27T02:19:43.367Z,6.88
2022-12-27T02:20:43.544Z,6.88
2022-12-27T02:21:43.724Z,6.87
2022-12-27T02:22:43.886Z,6.87
2022-12-27T02:23:44.036Z,6.87
2022-12-27T02:24:44.237Z,6.85
2022-12-27T02:25:44.386Z,6.85
2022-12-27T02:26:44.613Z,6.85
2022-12-27T02:27:44.748Z,6.87
2022-12-27T02:28:44.914Z,6.87
2022-12-27T02:29:45.160Z,6.85
2022-12-27T02:30:45.306Z,6.84
2022-12-27T02:31:45.433Z,6.85
2022-12-27T02:32:45.603Z,6.84
2022-12-27T02:33:45.773Z,6.82
2022-12-27T02:34:45.983Z,6.85
2022-12-27T02:35:46.141Z,6.84
2022-12-27T02:36:46.349Z,6.85
2022-12-27T02:37:46.499Z,6.82
2022-12-27T02:38:46.678Z,6.82
2022-12-27T02:39:46.857Z,6.84
2022-12-27T02:40:47.006Z,6.84
2022-12-27T02:41:47.202Z,6.82
2022-12-27T02:42:47.342Z,6.84
2022-12-27T02:43:47.502Z,6.84
2022-12-27T02:44:47.672Z,6.81
2022-12-27T02:45:47.845Z,6.82
2022-12-27T02:46:48.007Z,6.79
2022-12-27T02:47:48.152Z,6.79
2022-12-27T02:48:48.310Z,6.78
2022-12-27T02:49:48.512Z,6.78
2022-12-27T02:50:48.677Z,6.78
2022-12-27T02:51:48.841Z,6.78
2022-12-27T02:52:49.003Z,6.78
2022-12-27T02:53:49.183Z,6.79
2022-12-27T02:54:49.384Z,6.78
2022-12-27T02:55:49.532Z,6.79
2022-12-27T02:56:49.760Z,6.79
2022-12-27T02:57:49.879Z,6.77
2022-12-27T02:58:50.144Z,6.77
2022-12-27T02:59:50.249Z,6.77
2022-12-27T03:00:50.439Z,6.77
2022-12-27T03:01:50.704Z,6.75
2022-12-27T03:02:50.803Z,6.77
2022-12-27T03:03:50.959Z,6.74
2022-12-27T03:04:51.109Z,6.72
2022-12-27T03:05:51.300Z,6.75
2022-12-27T03:06:51.527Z,6.74
2022-12-27T03:07:51.668Z,6.72
2022-12-27T03:08:51.867Z,6.72
2022-12-27T03:09:52.025Z,6.72
2022-12-27T03:10:52.218Z,6.70
2022-12-27T03:11:52.437Z,6.72
2022-12-27T03:12:52.548Z,6.70
2022-12-27T03:13:52.729Z,6.70
2022-12-27T03:14:52.927Z,6.74
2022-12-27T03:15:53.104Z,6.69
2022-12-27T03:16:53.282Z,6.67
2022-12-27T03:17:53.437Z,6.69
2022-12-27T03:18:53.630Z,6.70
2022-12-27T03:19:53.789Z,6.70
2022-12-27T03:20:53.982Z,6.70
2022-12-27T03:21:54.157Z,6.70
2022-12-27T03:22:54.318Z,6.70
2022-12-27T03:23:54.496Z,6.69
2022-12-27T03:24:54.671Z,6.72
2022-12-27T03:25:54.818Z,6.69
2022-12-27T03:26:55.007Z,6.69
2022-12-27T03:27:55.156Z,6.69
2022-12-27T03:28:55.357Z,6.72
2022-12-27T03:29:55.540Z,6.69
2022-12-27T03:30:55.715Z,6.69
2022-12-27T03:31:55.885Z,6.70
2022-12-27T03:32:56.051Z,6.69
2022-12-27T03:33:56.205Z,6.70
2022-12-27T03:34:56.378Z,6.72
2022-12-27T03:35:56.526Z,6.72
2022-12-27T03:36:56.707Z,6.74
2022-12-27T03:37:56.872Z,6.75
2022-12-27T03:38:57.056Z,6.74
2022-12-27T03:39:57.205Z,6.72
2022-12-27T03:40:57.420Z,6.75
2022-12-27T03:41:57.635Z,6.74
2022-12-27T03:42:57.753Z,6.74
2022-12-27T03:43:57.904Z,6.74
2022-12-27T03:44:58.112Z,6.77
2022-12-27T03:45:58.322Z,6.78
2022-12-27T03:46:58.431Z,6.78
2022-12-27T03:47:58.586Z,6.77
2022-12-27T03:48:58.781Z,6.77
2022-12-27T03:49:58.929Z,6.77
2022-12-27T03:50:59.116Z,6.78
2022-12-27T03:51:59.263Z,6.77
2022-12-27T03:52:59.424Z,6.77
2022-12-27T03:53:59.598Z,6.79
2022-12-27T03:54:59.796Z,6.78
2022-12-27T03:55:59.942Z,6.78
2022-12-27T03:57:00.143Z,6.78
2022-12-27T03:58:00.309Z,6.81
2022-12-27T03:59:00.481Z,6.81
2022-12-27T04:00:00.658Z,6.82
2022-12-27T04:01:00.810Z,6.84
2022-12-27T04:02:01.134Z,6.81
2022-12-27T04:03:01.251Z,6.78
2022-12-27T04:04:01.292Z,6.81
2022-12-27T04:05:01.483Z,6.81
2022-12-27T04:06:01.643Z,6.82
2022-12-27T04:07:01.840Z,6.82
2022-12-27T04:08:02.009Z,6.82
2022-12-27T04:09:02.193Z,6.82
2022-12-27T04:10:02.399Z,6.84
2022-12-27T04:11:02.530Z,6.82
2022-12-27T04:12:02.764Z,6.85
2022-12-27T04:13:02.883Z,6.87
2022-12-27T04:14:03.037Z,6.85
2022-12-27T04:15:03.214Z,6.85
2022-12-27T04:16:03.411Z,6.85
2022-12-27T04:17:03.561Z,6.87
2022-12-27T04:18:03.721Z,6.85
2022-12-27T04:19:03.932Z,6.88
2022-12-27T04:20:04.081Z,6.84
2022-12-27T04:21:04.285Z,6.85
2022-12-27T04:22:04.420Z,6.87
2022-12-27T04:23:04.596Z,6.85
2022-12-27T04:24:04.770Z,6.85
2022-12-27T04:25:04.929Z,6.85
2022-12-27T04:26:05.082Z,6.85
2022-12-27T04:27:05.253Z,6.85
2022-12-27T04:28:05.407Z,6.88
2022-12-27T04:29:05.629Z,6.88
2022-12-27T04:30:05.800Z,6.89
2022-12-27T04:31:06.011Z,6.92
2022-12-27T04:32:06.154Z,6.92
2022-12-27T04:33:06.310Z,6.95
2022-12-27T04:34:06.482Z,6.93
2022-12-27T04:35:06.666Z,6.92
2022-12-27T04:36:06.840Z,6.93
2022-12-27T04:37:07.031Z,6.93
2022-12-27T04:38:07.178Z,6.95
2022-12-27T04:39:07.369Z,6.93
2022-12-27T04:40:07.583Z,6.95
2022-12-27T04:41:07.730Z,6.95
2022-12-27T04:42:07.935Z,6.93
2022-12-27T04:43:08.055Z,6.96
2022-12-27T04:44:08.229Z,6.95
2022-12-27T04:45:14.903Z,6.95
2022-12-27T04:46:09.633Z,6.92
2022-12-27T04:47:08.786Z,6.88
2022-12-27T04:48:08.937Z,6.89
2022-12-27T04:49:09.144Z,6.87
2022-12-27T04:50:09.289Z,6.89
2022-12-27T04:51:09.480Z,6.88
2022-12-27T04:52:09.651Z,6.88
2022-12-27T04:53:09.815Z,6.92
2022-12-27T04:54:09.975Z,6.92
2022-12-27T04:55:10.290Z,6.96
2022-12-27T04:56:10.315Z,6.96
2022-12-27T04:57:10.536Z,6.96
2022-12-27T04:58:10.655Z,6.95
2022-12-27T04:59:10.853Z,6.96
2022-12-27T05:00:11.016Z,6.97
2022-12-27T05:01:14.316Z,6.97
2022-12-27T05:02:11.422Z,6.97
2022-12-27T05:03:11.590Z,6.96
2022-12-27T05:04:11.685Z,6.99
2022-12-27T05:05:11.876Z,6.97
2022-12-27T05:06:12.035Z,6.93
2022-12-27T05:07:12.241Z,6.95
2022-12-27T05:08:12.394Z,6.95
2022-12-27T05:09:12.593Z,6.93
2022-12-27T05:10:12.745Z,6.93
2022-12-27T05:11:12.941Z,6.93
2022-12-27T05:12:13.113Z,6.92
2022-12-27T05:13:13.273Z,6.92
2022-12-27T05:14:13.422Z,6.87
2022-12-27T05:15:13.623Z,6.89
2022-12-27T05:16:13.815Z,6.87
2022-12-27T05:17:13.954Z,6.85
2022-12-27T05:18:14.134Z,6.87
2022-12-27T05:19:14.301Z,6.88
2022-12-27T05:20:14.457Z,6.87
2022-12-27T05:21:14.649Z,6.85
2022-12-27T05:22:14.820Z,6.85
2022-12-27T05:23:14.986Z,6.85
2022-12-27T05:24:15.131Z,6.84
2022-12-27T05:25:15.294Z,6.82
2022-12-27T05:26:15.478Z,6.82
2022-12-27T05:27:16.167Z,6.85
2022-12-27T05:28:15.862Z,6.81
2022-12-27T05:29:16.032Z,6.82
2022-12-27T05:30:16.180Z,6.81
2022-12-27T05:31:16.394Z,6.81
2022-12-27T05:32:16.552Z,6.81
2022-12-27T05:33:16.711Z,6.81
2022-12-27T05:34:16.885Z,6.85
2022-12-27T05:35:17.042Z,6.89
2022-12-27T05:36:17.221Z,6.89
2022-12-27T05:37:17.411Z,6.93
2022-12-27T05:38:17.599Z,6.96
2022-12-27T05:39:17.810Z,7.00
2022-12-27T05:40:17.951Z,7.02
2022-12-27T05:41:18.139Z,7.05
2022-12-27T05:42:18.313Z,7.07
2022-12-27T05:43:18.477Z,7.07
2022-12-27T05:44:18.652Z,7.13
2022-12-27T05:45:18.815Z,7.17
2022-12-27T05:46:18.996Z,7.18
2022-12-27T05:47:19.148Z,7.21
2022-12-27T05:48:19.329Z,7.24
2022-12-27T05:49:19.540Z,7.25
2022-12-27T05:50:19.695Z,7.28
2022-12-27T05:51:19.897Z,7.29
2022-12-27T05:52:20.070Z,7.29
2022-12-27T05:53:20.214Z,7.28
2022-12-27T05:54:20.379Z,7.31
2022-12-27T05:55:20.559Z,7.29
2022-12-27T05:56:20.733Z,7.29
2022-12-27T05:57:20.936Z,7.25
2022-12-27T05:58:21.088Z,7.28
2022-12-27T05:59:21.258Z,7.28
2022-12-27T06:00:21.414Z,7.24
2022-12-27T06:01:21.639Z,7.21
2022-12-27T06:02:22.017Z,7.20
2022-12-27T06:03:22.116Z,7.17
2022-12-27T06:04:22.165Z,7.17
2022-12-27T06:05:22.347Z,7.17
2022-12-27T06:06:22.511Z,7.13
2022-12-27T06:07:22.708Z,7.13
2022-12-27T06:08:22.875Z,7.14
2022-12-27T06:09:23.042Z,7.10
2022-12-27T06:10:23.241Z,7.10
2022-12-27T06:11:23.389Z,7.07
2022-12-27T06:12:23.587Z,7.05
2022-12-27T06:13:23.748Z,7.05
2022-12-27T06:14:23.937Z,7.07
2022-12-27T06:15:24.091Z,7.06
2022-12-27T06:16:24.323Z,7.05
2022-12-27T06:17:24.483Z,7.05
2022-12-27T06:18:24.644Z,7.05
2022-12-27T06:19:24.795Z,7.05
2022-12-27T06:20:24.992Z,7.03
2022-12-27T06:21:25.152Z,7.02
2022-12-27T06:22:25.333Z,6.99
2022-12-27T06:23:25.476Z,6.99
2022-12-27T06:24:25.655Z,6.97
2022-12-27T06:25:25.814Z,6.97
2022-12-27T06:26:26.028Z,6.95
2022-12-27T06:27:26.163Z,6.93
2022-12-27T06:28:26.332Z,6.93
2022-12-27T06:29:26.492Z,6.93
2022-12-27T06:30:29.291Z,6.92
2022-12-27T06:31:27.916Z,6.92
2022-12-27T06:32:27.042Z,6.92
2022-12-27T06:33:27.198Z,6.93
2022-12-27T06:34:27.385Z,6.95
2022-12-27T06:35:27.554Z,6.93
2022-12-27T06:36:27.734Z,6.95
2022-12-27T06:37:27.885Z,6.92
2022-12-27T06:38:28.057Z,6.95
2022-12-27T06:39:28.194Z,6.95
2022-12-27T06:40:28.395Z,6.93
2022-12-27T06:41:28.543Z,6.95
2022-12-27T06:42:28.753Z,6.89
2022-12-27T06:43:28.904Z,6.93
2022-12-27T06:44:29.104Z,6.95
2022-12-27T06:45:29.303Z,6.93
2022-12-27T06:46:29.625Z,6.92
2022-12-27T06:47:29.634Z,6.88
2022-12-27T06:48:29.793Z,6.87
2022-12-27T06:49:29.956Z,6.85
2022-12-27T06:50:30.111Z,6.82
2022-12-27T06:51:30.281Z,6.82
2022-12-27T06:52:30.477Z,6.81
2022-12-27T06:53:30.645Z,6.78
2022-12-27T06:54:30.822Z,6.79
2022-12-27T06:55:30.998Z,6.75
2022-12-27T06:56:31.171Z,6.74
2022-12-27T06:57:31.364Z,6.75
2022-12-27T06:58:31.533Z,6.74
2022-12-27T06:59:31.703Z,6.74
2022-12-27T07:00:31.881Z,6.72
2022-12-27T07:01:32.145Z,6.72
2022-12-27T07:02:32.372Z,6.70
2022-12-27T07:03:32.402Z,6.75
2022-12-27T07:04:32.590Z,6.78
2022-12-27T07:05:32.752Z,6.78
2022-12-27T07:06:32.937Z,6.79
2022-12-27T07:07:33.123Z,6.79
2022-12-27T07:08:33.307Z,6.85
2022-12-27T07:09:33.480Z,6.85
2022-12-27T07:10:33.670Z,6.87
2022-12-27T07:11:33.835Z,6.88
2022-12-27T07:12:36.828Z,6.92
2022-12-27T07:13:34.178Z,6.93
2022-12-27T07:14:34.341Z,6.95
2022-12-27T07:15:34.541Z,6.97
2022-12-27T07:16:35.247Z,6.99
2022-12-27T07:17:34.914Z,7.00
2022-12-27T07:18:35.070Z,7.03
2022-12-27T07:19:35.245Z,7.06
2022-12-27T07:20:35.422Z,7.10
2022-12-27T07:21:35.607Z,7.10
2022-12-27T07:22:35.797Z,7.10
2022-12-27T07:23:35.970Z,7.14
2022-12-27T07:24:36.160Z,7.10
2022-12-27T07:25:36.339Z,7.14
2022-12-27T07:26:36.530Z,7.15
2022-12-27T07:27:36.760Z,7.13
2022-12-27T07:28:36.909Z,7.14
2022-12-27T07:29:41.918Z,7.15
2022-12-27T07:30:38.255Z,7.11
2022-12-27T07:31:37.419Z,7.13
2022-12-27T07:32:37.608Z,7.13
2022-12-27T07:33:37.770Z,7.13
2022-12-27T07:34:37.934Z,7.14
2022-12-27T07:35:43.472Z,7.17
2022-12-27T07:36:39.297Z,7.18
2022-12-27T07:37:38.455Z,7.21
2022-12-27T07:38:38.637Z,7.24
2022-12-27T07:39:38.815Z,7.28
2022-12-27T07:40:38.999Z,7.32
2022-12-27T07:41:39.159Z,7.36
2022-12-27T07:42:39.357Z,7.42
2022-12-27T07:43:39.496Z,7.48
2022-12-27T07:44:39.704Z,7.54
2022-12-27T07:45:39.891Z,7.58
2022-12-27T07:46:40.063Z,7.61
2022-12-27T07:47:40.215Z,7.67
2022-12-27T07:48:40.424Z,7.70
2022-12-27T07:49:40.590Z,7.73
2022-12-27T07:50:40.744Z,7.76
2022-12-27T07:51:40.930Z,7.82
2022-12-27T07:52:41.158Z,7.85
2022-12-27T07:53:41.283Z,7.85
2022-12-27T07:54:41.476Z,7.90
2022-12-27T07:55:41.642Z,7.91
2022-12-27T07:56:41.818Z,7.94
2022-12-27T07:57:42.005Z,7.97
2022-12-27T07:58:42.166Z,7.97
2022-12-27T07:59:42.350Z,8.01
2022-12-27T08:00:42.541Z,8.03
2022-12-27T08:01:42.757Z,8.09
2022-12-27T08:02:42.885Z,8.08
2022-12-27T08:03:43.142Z,8.12
2022-12-27T08:04:43.242Z,8.15
2022-12-27T08:05:43.440Z,8.16
2022-12-27T08:06:43.596Z,8.20
2022-12-27T08:07:43.792Z,8.26
2022-12-27T08:08:43.963Z,8.27
2022-12-27T08:09:44.145Z,8.31
2022-12-27T08:10:44.333Z,8.33
2022-12-27T08:11:44.516Z,8.34
2022-12-27T08:12:44.725Z,8.38
2022-12-27T08:13:44.879Z,8.41
2022-12-27T08:14:45.066Z,8.46
2022-12-27T08:15:45.256Z,8.46
2022-12-27T08:16:45.469Z,8.49
2022-12-27T08:17:45.642Z,8.52
2022-12-27T08:18:45.811Z,8.55
2022-12-27T08:19:45.971Z,8.60
2022-12-27T08:20:46.157Z,8.63
2022-12-27T08:21:46.324Z,8.64
2022-12-27T08:22:46.524Z,8.70
2022-12-27T08:23:46.704Z,8.76
2022-12-27T08:24:46.870Z,8.81
2022-12-27T08:25:48.981Z,8.85
2022-12-27T08:26:47.212Z,8.88
2022-12-27T08:27:47.402Z,8.92
2022-12-27T08:28:47.582Z,8.92
2022-12-27T08:29:47.766Z,8.94
2022-12-27T08:30:47.982Z,8.97
2022-12-27T08:31:48.118Z,9.02
2022-12-27T08:32:48.304Z,9.06
2022-12-27T08:33:51.230Z,9.06
2022-12-27T08:34:49.670Z,9.11
2022-12-27T08:35:53.763Z,9.16
2022-12-27T08:36:57.390Z,9.13
2022-12-27T08:37:50.208Z,9.08
2022-12-27T08:38:49.362Z,9.08
2022-12-27T08:39:49.539Z,9.08
2022-12-27T08:40:49.720Z,9.13
2022-12-27T08:41:49.926Z,9.16
2022-12-27T08:42:50.091Z,9.19
2022-12-27T08:43:50.245Z,9.19
2022-12-27T08:44:50.423Z,9.21
2022-12-27T08:45:50.616Z,9.23
2022-12-27T08:46:50.740Z,9.26
2022-12-27T08:47:50.953Z,9.25
2022-12-27T08:48:51.100Z,9.28
2022-12-27T08:49:51.250Z,9.28
2022-12-27T08:50:51.462Z,9.28
2022-12-27T08:51:51.618Z,9.25
2022-12-27T08:52:51.808Z,9.28
2022-12-27T08:53:51.985Z,9.32
2022-12-27T08:54:52.132Z,9.37
2022-12-27T08:55:52.309Z,9.40
2022-12-27T08:56:52.496Z,9.43
2022-12-27T08:57:52.671Z,9.44
2022-12-27T08:58:52.857Z,9.48
2022-12-27T08:59:53.031Z,9.55
2022-12-27T09:00:53.209Z,9.61
2022-12-27T09:01:53.581Z,9.62
2022-12-27T09:02:53.611Z,9.65
2022-12-27T09:03:53.763Z,9.65
2022-12-27T09:04:53.919Z,9.64
2022-12-27T09:05:54.091Z,9.65
2022-12-27T09:06:54.283Z,9.65
2022-12-27T09:07:54.470Z,9.65
2022-12-27T09:08:54.796Z,9.68
2022-12-27T09:09:54.827Z,9.72
2022-12-27T09:10:55.010Z,9.72
2022-12-27T09:11:56.062Z,9.77
2022-12-27T09:12:55.371Z,9.82
2022-12-27T09:13:55.545Z,10.15
2022-12-27T09:14:55.706Z,10.99
2022-12-27T09:15:55.886Z,11.86
2022-12-27T09:16:56.040Z,12.54
2022-12-27T09:17:56.204Z,13.18
2022-12-27T09:18:56.394Z,13.86
2022-12-27T09:19:56.558Z,14.33
2022-12-27T09:20:56.703Z,14.44
2022-12-27T09:21:56.856Z,14.79
2022-12-27T09:22:57.060Z,14.45
2022-12-27T09:23:57.240Z,13.92
2022-12-27T09:24:57.446Z,13.44
2022-12-27T09:25:57.567Z,12.97
2022-12-27T09:26:57.760Z,12.57
2022-12-27T09:27:57.979Z,12.27
2022-12-27T09:28:58.117Z,12.00
2022-12-27T09:29:58.308Z,11.75
2022-12-27T09:30:58.527Z,11.52
2022-12-27T09:31:58.639Z,11.35
2022-12-27T09:32:58.851Z,11.17
2022-12-27T09:33:59.021Z,11.00
2022-12-27T09:34:59.175Z,10.93
2022-12-27T09:35:59.329Z,10.82
2022-12-27T09:36:59.526Z,10.74
2022-12-27T09:37:59.718Z,10.67
2022-12-27T09:38:59.907Z,10.67
2022-12-27T09:40:00.059Z,10.64
2022-12-27T09:41:00.205Z,10.68
2022-12-27T09:43:16.352Z,10.56
2022-12-27T09:44:01.718Z,10.49
2022-12-27T09:45:00.927Z,10.42
2022-12-27T09:46:01.136Z,10.33
2022-12-27T09:47:01.255Z,10.28
2022-12-27T09:48:01.414Z,10.20
2022-12-27T09:49:01.574Z,10.16
2022-12-27T09:50:01.739Z,10.19
2022-12-27T09:51:01.884Z,10.19
2022-12-27T09:52:02.067Z,10.22
2022-12-27T09:53:02.265Z,10.22
2022-12-27T09:54:02.454Z,10.22
2022-12-27T09:55:05.007Z,10.25
2022-12-27T09:56:02.787Z,10.23
2022-12-27T09:57:19.442Z,10.22
2022-12-27T09:58:04.093Z,10.22
2022-12-27T09:59:03.387Z,10.23
2022-12-27T10:00:03.452Z,10.26
2022-12-27T10:01:03.647Z,10.31
2022-12-27T10:02:03.886Z,10.37
2022-12-27T10:03:04.005Z,10.42
2022-12-27T10:04:04.207Z,10.42
2022-12-27T10:05:21.580Z,10.51
2022-12-27T10:06:05.584Z,10.57
2022-12-27T10:07:04.697Z,10.63
2022-12-27T10:08:04.876Z,10.67
2022-12-27T10:09:05.116Z,10.68
2022-12-27T10:10:05.246Z,10.67
2022-12-27T10:11:05.434Z,10.71
2022-12-27T10:12:05.628Z,10.79
2022-12-27T10:13:05.797Z,10.87
2022-12-27T10:14:06.025Z,10.92
2022-12-27T10:15:06.146Z,10.97
2022-12-27T10:16:06.352Z,11.05
2022-12-27T10:17:06.516Z,11.08
2022-12-27T10:18:06.692Z,11.15
2022-12-27T10:19:06.933Z,11.22
2022-12-27T10:20:07.105Z,11.26
2022-12-27T10:21:07.248Z,11.23
2022-12-27T10:22:07.437Z,11.23
2022-12-27T10:23:07.556Z,11.26
2022-12-27T10:24:07.771Z,11.26
2022-12-27T10:25:07.897Z,11.27
2022-12-27T10:26:08.082Z,11.29
2022-12-27T10:27:08.248Z,11.30
2022-12-27T10:28:08.455Z,11.32
2022-12-27T10:29:08.614Z,11.30
2022-12-27T10:30:08.787Z,11.33
2022-12-27T10:31:08.990Z,11.35
2022-12-27T10:32:09.154Z,11.36
2022-12-27T10:33:09.335Z,11.44
2022-12-27T10:34:10.843Z,11.44
2022-12-27T10:35:09.684Z,11.44
2022-12-27T10:36:09.866Z,11.48
2022-12-27T10:37:10.056Z,11.48
2022-12-27T10:38:10.235Z,11.48
2022-12-27T10:39:10.446Z,11.50
2022-12-27T10:40:10.603Z,11.45
2022-12-27T10:41:10.797Z,11.44
2022-12-27T10:42:10.970Z,11.41
2022-12-27T10:43:11.111Z,11.41
2022-12-27T10:44:11.330Z,11.43
2022-12-27T10:45:11.515Z,11.44
2022-12-27T10:46:11.697Z,11.43
2022-12-27T10:47:11.911Z,11.43
2022-12-27T10:48:12.033Z,11.45
2022-12-27T10:49:21.109Z,11.41
2022-12-27T10:50:13.374Z,11.41
2022-12-27T10:51:12.543Z,11.44
2022-12-27T10:52:12.701Z,11.44
2022-12-27T10:53:12.885Z,11.47
2022-12-27T10:54:13.073Z,11.40
2022-12-27T10:55:13.256Z,11.35
2022-12-27T10:56:13.441Z,11.30
2022-12-27T10:57:13.625Z,11.32
2022-12-27T10:58:13.810Z,11.32
2022-12-27T10:59:14.004Z,11.30
2022-12-27T11:00:14.185Z,11.30
2022-12-27T11:01:14.548Z,11.29
2022-12-27T11:02:14.697Z,11.27
2022-12-27T11:03:14.709Z,11.27
2022-12-27T11:04:20.291Z,11.18
2022-12-27T11:05:16.063Z,11.19
2022-12-27T11:06:15.255Z,11.18
2022-12-27T11:07:15.438Z,11.15
2022-12-27T11:08:15.632Z,11.15
2022-12-27T11:09:15.793Z,11.11
2022-12-27T11:10:15.956Z,11.11
2022-12-27T11:11:16.133Z,11.02
2022-12-27T11:12:16.314Z,11.02
2022-12-27T11:13:16.492Z,11.02
2022-12-27T11:14:16.692Z,11.00
2022-12-27T11:15:16.885Z,11.00
2022-12-27T11:16:17.073Z,10.97
2022-12-27T11:17:17.240Z,10.99
2022-12-27T11:18:17.434Z,11.05
2022-12-27T11:19:17.620Z,11.05
2022-12-27T11:20:17.792Z,11.04
2022-12-27T11:21:25.772Z,11.08
2022-12-27T11:22:19.163Z,11.08
2022-12-27T11:23:18.374Z,11.11
2022-12-27T11:24:18.563Z,11.11
2022-12-27T11:25:18.732Z,11.12
2022-12-27T11:26:18.912Z,11.11
2022-12-27T11:27:19.103Z,11.12
2022-12-27T11:28:19.283Z,11.15
2022-12-27T11:29:19.491Z,11.23
2022-12-27T11:30:19.651Z,11.27
2022-12-27T11:31:19.866Z,11.30
2022-12-27T11:32:20.002Z,11.26
2022-12-27T11:33:24.690Z,11.19
2022-12-27T11:34:21.395Z,11.15
2022-12-27T11:35:20.506Z,11.07
2022-12-27T11:36:20.691Z,10.97
2022-12-27T11:37:20.870Z,10.94
2022-12-27T11:38:21.061Z,10.89
2022-12-27T11:39:21.254Z,10.82
2022-12-27T11:40:21.420Z,10.79
2022-12-27T11:41:27.586Z,10.78
2022-12-27T11:42:22.786Z,10.76
2022-12-27T11:43:21.969Z,10.74
2022-12-27T11:44:22.177Z,10.71
2022-12-27T11:45:22.334Z,10.69
2022-12-27T11:46:22.533Z,10.68
2022-12-27T11:47:22.738Z,10.67
2022-12-27T11:48:22.918Z,10.67
2022-12-27T11:49:23.074Z,10.63
2022-12-27T11:50:23.259Z,10.61
2022-12-27T11:51:23.432Z,10.61
2022-12-27T11:52:23.628Z,10.61
2022-12-27T11:53:23.773Z,10.59
2022-12-27T11:54:23.984Z,10.57
2022-12-27T11:55:24.141Z,10.59
2022-12-27T11:56:24.352Z,10.56
2022-12-27T11:57:24.523Z,10.61
2022-12-27T11:58:24.706Z,10.69
2022-12-27T11:59:24.899Z,10.76
2022-12-27T12:00:25.069Z,10.86
2022-12-27T12:01:25.242Z,10.93
2022-12-27T12:02:25.452Z,11.07
2022-12-27T12:03:25.579Z,11.15
2022-12-27T12:04:25.783Z,11.19
2022-12-27T12:05:25.919Z,11.30
2022-12-27T12:06:28.813Z,11.32
2022-12-27T12:07:27.290Z,11.37
2022-12-27T12:08:26.439Z,11.41
2022-12-27T12:09:26.662Z,11.48
2022-12-27T12:10:26.806Z,11.50
2022-12-27T12:11:26.991Z,11.54
2022-12-27T12:12:27.172Z,11.55
2022-12-27T12:13:27.340Z,11.62
2022-12-27T12:14:27.544Z,11.66
2022-12-27T12:15:27.739Z,11.66
2022-12-27T12:16:27.951Z,11.70
2022-12-27T12:17:34.007Z,11.75
2022-12-27T12:18:29.238Z,11.77
2022-12-27T12:19:28.401Z,11.80
2022-12-27T12:20:28.570Z,11.84
2022-12-27T12:21:28.742Z,11.90
2022-12-27T12:22:28.920Z,11.94
2022-12-27T12:23:29.163Z,11.99
2022-12-27T12:24:29.301Z,11.99
2022-12-27T12:25:29.435Z,11.91
2022-12-27T12:26:29.619Z,11.91
2022-12-27T12:27:29.804Z,11.88
2022-12-27T12:28:57.116Z,11.84
2022-12-27T12:29:31.149Z,11.78
2022-12-27T12:30:30.299Z,11.75
2022-12-27T12:31:30.492Z,11.69
2022-12-27T12:32:30.656Z,11.62
2022-12-27T12:33:30.838Z,11.54
2022-12-27T12:34:31.048Z,11.47
2022-12-27T12:35:31.200Z,11.43
2022-12-27T12:36:31.379Z,11.37
2022-12-27T12:37:31.556Z,11.32
2022-12-27T12:38:31.754Z,11.30
2022-12-27T12:39:31.957Z,11.30
2022-12-27T12:40:32.110Z,11.26
2022-12-27T12:41:32.293Z,11.22
2022-12-27T12:42:32.520Z,11.15
2022-12-27T12:43:32.628Z,11.14
2022-12-27T12:44:37.907Z,11.12
2022-12-27T12:45:34.009Z,11.10
2022-12-27T12:46:33.182Z,11.08
2022-12-27T12:47:33.358Z,11.05
2022-12-27T12:48:33.548Z,11.05
2022-12-27T12:49:33.722Z,11.02
2022-12-27T12:50:33.909Z,11.02
2022-12-27T12:51:34.088Z,10.96
2022-12-27T12:52:34.269Z,10.93
2022-12-27T12:53:34.430Z,10.89
2022-12-27T12:54:34.618Z,10.87
2022-12-27T12:55:38.477Z,10.86
2022-12-27T12:56:34.961Z,10.81
2022-12-27T12:57:35.129Z,10.76
2022-12-27T12:58:35.312Z,10.76
2022-12-27T12:59:35.496Z,10.75
2022-12-27T13:00:35.738Z,10.75
2022-12-27T13:01:36.054Z,10.72
2022-12-27T13:02:36.193Z,10.71
2022-12-27T13:03:36.328Z,10.67
2022-12-27T13:04:36.419Z,10.67
2022-12-27T13:05:36.569Z,10.67
2022-12-27T13:06:36.723Z,10.64
2022-12-27T13:07:39.660Z,10.61
2022-12-27T13:08:37.049Z,10.59
2022-12-27T13:09:37.261Z,10.57
2022-12-27T13:10:37.417Z,10.54
2022-12-27T13:11:37.596Z,10.53
2022-12-27T13:12:37.776Z,10.53
2022-12-27T13:13:37.969Z,10.48